Time;durP1;ratioP1;P1;durP2;ratioP2;P2;SDS_P1;SDS_P2;PMS_P1;PMS_P2;Temp;Humidity;BMP_temperature;BMP_pressure;BME280_temperature;BME280_humidity;BME280_pressure;Samples;Min_cycle;Max_cycle;Signal;HPM_P1;HPM_P2
2023/10/04 00:00:15;;;;;;;;;;;19.80;97.10;;;;;;4998118;28;20394;-74
2023/10/04 00:02:51;;;;;;;;;;;19.80;96.50;;;;;;5015031;28;19935;-74
2023/10/04 00:05:18;;;;;;;;;;;19.80;96.40;;;;;;5004354;28;19927;-74
2023/10/04 00:07:47;;;;;;;;;;;19.80;96.40;;;;;;5014353;28;20490;-74
2023/10/04 00:10:13;;;;;;;;;;;19.80;96.20;;;;;;4998766;28;19913;-74
2023/10/04 00:12:39;;;;;;;;;;;19.80;96.00;;;;;;4990880;28;20365;-74
2023/10/04 00:15:26;;;;;;;;;;;19.80;96.00;;;;;;5014497;28;19926;-74
2023/10/04 00:17:52;;;;;;;;;;;19.80;95.50;;;;;;5009409;28;19978;-73
2023/10/04 00:20:18;;;;;;;;;;;19.80;95.30;;;;;;4997142;28;19913;-74
2023/10/04 00:22:46;;;;;;;;;;;19.80;95.10;;;;;;5002595;28;19920;-74
2023/10/04 00:25:22;;;;;;;;;;;19.80;94.90;;;;;;5009760;28;19951;-74
2023/10/04 00:27:48;;;;;;;;;;;19.70;94.90;;;;;;4992344;28;20234;-74
2023/10/04 00:30:15;;;;;;;;;;;19.70;95.00;;;;;;5002406;28;20383;-74
2023/10/04 00:32:41;;;;;;;;;;;19.70;94.90;;;;;;5001986;28;19914;-74
2023/10/04 00:35:11;;;;;;;;;;;19.70;94.90;;;;;;5014606;28;19913;-74
2023/10/04 00:37:43;;;;;;;;;;;19.60;94.60;;;;;;4995156;28;19913;-74
2023/10/04 00:40:13;;;;;;;;;;;19.60;94.60;;;;;;5015279;28;20356;-74
2023/10/04 00:42:40;;;;;;;;;;;19.50;94.60;;;;;;5008884;28;19909;-74
2023/10/04 00:45:06;;;;;;;;;;;19.40;94.70;;;;;;5013735;28;19921;-74
2023/10/04 00:47:32;;;;;;;;;;;19.40;94.70;;;;;;4996751;28;19917;-74
2023/10/04 00:50:01;;;;;;;;;;;19.40;94.80;;;;;;5009010;28;19909;-74
2023/10/04 00:52:26;;;;;;;;;;;19.40;94.80;;;;;;4996512;28;20548;-74
2023/10/04 00:54:53;;;;;;;;;;;19.40;94.60;;;;;;5012742;28;19913;-74
2023/10/04 00:57:19;;;;;;;;;;;19.40;94.40;;;;;;5014102;28;19967;-73
2023/10/04 00:59:45;;;;;;;;;;;19.40;94.30;;;;;;4994939;28;19921;-74
2023/10/04 01:02:10;;;;;;;;;;;19.30;94.30;;;;;;5009100;28;20287;-74
2023/10/04 01:04:36;;;;;;;;;;;19.30;94.50;;;;;;4995632;28;19914;-74
2023/10/04 01:07:02;;;;;;;;;;;19.20;94.40;;;;;;5010810;28;19922;-74
2023/10/04 01:09:28;;;;;;;;;;;19.20;94.40;;;;;;5010735;28;19921;-74
2023/10/04 01:11:54;;;;;;;;;;;19.20;94.40;;;;;;5013617;28;20614;-74
2023/10/04 01:14:27;;;;;;;;;;;19.20;94.30;;;;;;5011516;28;19963;-74
2023/10/04 01:16:54;;;;;;;;;;;19.10;94.30;;;;;;5011955;28;19917;-74
2023/10/04 01:19:22;;;;;;;;;;;19.10;94.20;;;;;;5013219;28;19913;-73
2023/10/04 01:21:48;;;;;;;;;;;19.10;93.90;;;;;;5012336;28;20312;-74
2023/10/04 01:24:14;;;;;;;;;;;19.00;93.80;;;;;;5013784;28;20101;-74
2023/10/04 01:26:39;;;;;;;;;;;19.00;94.10;;;;;;5000005;28;19913;-74
2023/10/04 01:29:11;;;;;;;;;;;19.00;93.90;;;;;;5016350;28;19921;-74
2023/10/04 01:31:37;;;;;;;;;;;18.90;93.90;;;;;;5013153;28;19909;-74
2023/10/04 01:34:04;;;;;;;;;;;18.90;94.00;;;;;;4998432;28;20423;-74
2023/10/04 01:36:32;;;;;;;;;;;18.90;94.20;;;;;;5009889;28;20317;-74
2023/10/04 01:38:58;;;;;;;;;;;18.90;94.30;;;;;;5017057;28;20668;-74
2023/10/04 01:41:25;;;;;;;;;;;18.80;94.30;;;;;;4999852;28;20062;-73
2023/10/04 01:43:53;;;;;;;;;;;18.80;94.30;;;;;;5013848;28;19933;-74
2023/10/04 01:46:19;;;;;;;;;;;18.70;94.50;;;;;;5019411;28;20031;-73
2023/10/04 01:48:44;;;;;;;;;;;18.70;94.50;;;;;;4999600;28;20006;-74
2023/10/04 01:51:12;;;;;;;;;;;18.70;94.60;;;;;;5007741;28;19917;-74
2023/10/04 01:53:38;;;;;;;;;;;18.70;94.50;;;;;;5011605;28;19924;-74
2023/10/04 01:56:07;;;;;;;;;;;18.60;94.60;;;;;;5017378;28;19913;-74
2023/10/04 01:58:33;;;;;;;;;;;18.50;94.80;;;;;;5012054;28;20319;-74
2023/10/04 02:01:01;;;;;;;;;;;18.50;95.00;;;;;;5015595;28;19909;-74
2023/10/04 02:03:27;;;;;;;;;;;18.50;94.80;;;;;;4999450;28;19913;-74
2023/10/04 02:05:56;;;;;;;;;;;18.50;94.90;;;;;;5012503;28;19924;-74
2023/10/04 02:08:22;;;;;;;;;;;18.50;95.00;;;;;;4999792;28;19917;-73
2023/10/04 02:10:49;;;;;;;;;;;18.40;95.10;;;;;;5016469;28;19979;-74
2023/10/04 02:13:15;;;;;;;;;;;18.30;95.20;;;;;;5009095;28;20006;-74
2023/10/04 02:15:47;;;;;;;;;;;18.30;95.20;;;;;;5012458;28;20317;-74
2023/10/04 02:18:13;;;;;;;;;;;18.30;95.20;;;;;;5010007;28;20430;-74
2023/10/04 02:20:46;;;;;;;;;;;18.30;95.30;;;;;;5018500;28;19910;-74
2023/10/04 02:23:12;;;;;;;;;;;18.20;95.50;;;;;;5007798;28;19917;-74
2023/10/04 02:25:39;;;;;;;;;;;18.20;95.60;;;;;;5016022;28;20325;-74
2023/10/04 02:28:10;;;;;;;;;;;18.10;95.70;;;;;;5006885;28;20596;-74
2023/10/04 02:30:37;;;;;;;;;;;18.10;95.80;;;;;;5016494;28;19936;-74
2023/10/04 02:33:08;;;;;;;;;;;18.00;96.00;;;;;;5012529;28;20360;-74
2023/10/04 02:35:34;;;;;;;;;;;18.00;96.00;;;;;;4993993;28;19913;-74
2023/10/04 02:38:00;;;;;;;;;;;18.00;96.10;;;;;;4994731;28;20549;-74
2023/10/04 02:40:32;;;;;;;;;;;18.00;96.10;;;;;;5016254;28;20415;-74
2023/10/04 02:42:58;;;;;;;;;;;18.00;96.20;;;;;;5011557;28;20391;-74
2023/10/04 02:45:29;;;;;;;;;;;18.00;96.20;;;;;;5015703;28;19924;-74
2023/10/04 02:47:54;;;;;;;;;;;18.00;96.30;;;;;;5010731;28;20475;-74
2023/10/04 02:50:22;;;;;;;;;;;17.90;96.40;;;;;;5014126;28;20118;-74
2023/10/04 02:52:50;;;;;;;;;;;17.90;96.50;;;;;;5016117;28;19995;-74
2023/10/04 02:55:17;;;;;;;;;;;17.90;96.70;;;;;;5014102;28;19959;-74
2023/10/04 02:57:42;;;;;;;;;;;17.80;97.20;;;;;;5015165;28;19928;-74
2023/10/04 03:00:12;;;;;;;;;;;17.80;97.80;;;;;;5011705;28;19913;-74
2023/10/04 03:02:38;;;;;;;;;;;17.80;98.60;;;;;;5019576;28;19996;-74
2023/10/04 03:05:06;;;;;;;;;;;17.70;99.10;;;;;;5007210;28;20001;-73
2023/10/04 03:07:32;;;;;;;;;;;17.70;99.60;;;;;;5016699;28;19956;-74
2023/10/04 03:09:58;;;;;;;;;;;17.70;99.90;;;;;;5016887;28;19965;-74
2023/10/04 03:12:24;;;;;;;;;;;17.60;99.90;;;;;;5017455;28;19921;-73
2023/10/04 03:14:50;;;;;;;;;;;17.60;99.90;;;;;;5017989;28;20320;-74
2023/10/04 03:17:16;;;;;;;;;;;17.60;99.90;;;;;;5008225;28;19932;-74
2023/10/04 03:19:43;;;;;;;;;;;17.50;99.90;;;;;;5014898;28;19947;-74
2023/10/04 03:22:10;;;;;;;;;;;17.40;99.90;;;;;;5010178;28;20413;-74
2023/10/04 03:24:36;;;;;;;;;;;17.40;99.90;;;;;;5005610;28;19932;-75
2023/10/04 03:27:05;;;;;;;;;;;17.30;99.90;;;;;;5015639;28;20383;-74
2023/10/04 03:29:30;;;;;;;;;;;17.30;99.90;;;;;;4994537;28;19913;-74
2023/10/04 03:31:56;;;;;;;;;;;17.30;99.90;;;;;;5009297;28;19913;-74
2023/10/04 03:34:25;;;;;;;;;;;17.20;99.90;;;;;;5014723;28;19923;-74
2023/10/04 03:36:51;;;;;;;;;;;17.10;99.90;;;;;;5010379;28;19960;-74
2023/10/04 03:39:16;;;;;;;;;;;17.10;99.90;;;;;;5002764;28;19913;-74
2023/10/04 03:41:42;;;;;;;;;;;17.10;99.90;;;;;;5021686;28;20689;-74
2023/10/04 03:44:08;;;;;;;;;;;17.10;99.90;;;;;;5014588;28;19921;-74
2023/10/04 03:46:34;;;;;;;;;;;17.00;99.90;;;;;;5009822;28;20388;-74
2023/10/04 03:49:01;;;;;;;;;;;16.90;99.90;;;;;;5014589;28;19906;-74
2023/10/04 03:51:27;;;;;;;;;;;16.90;99.90;;;;;;5012291;28;20659;-74
2023/10/04 03:53:53;;;;;;;;;;;16.90;99.90;;;;;;5014484;28;19975;-74
2023/10/04 03:56:21;;;;;;;;;;;16.90;99.90;;;;;;5014704;28;20409;-74
2023/10/04 03:58:48;;;;;;;;;;;16.90;99.90;;;;;;5014662;28;19928;-75
2023/10/04 04:01:14;;;;;;;;;;;16.90;99.90;;;;;;5010262;28;19917;-75
2023/10/04 04:03:41;;;;;;;;;;;16.90;99.90;;;;;;5013922;28;19913;-75
2023/10/04 04:06:08;;;;;;;;;;;16.90;99.90;;;;;;5003286;28;19909;-74
2023/10/04 04:08:33;;;;;;;;;;;16.90;99.90;;;;;;5014608;28;19917;-73
2023/10/04 04:10:59;;;;;;;;;;;16.70;99.90;;;;;;5015414;28;19913;-74
2023/10/04 04:13:25;;;;;;;;;;;16.80;99.90;;;;;;5014107;28;19995;-74
2023/10/04 04:15:51;;;;;;;;;;;16.70;99.90;;;;;;4997051;28;20284;-74
2023/10/04 04:18:20;;;;;;;;;;;16.60;99.90;;;;;;5011466;28;19947;-74
2023/10/04 04:20:49;;;;;;;;;;;16.60;99.90;;;;;;4999109;28;19970;-74
2023/10/04 04:23:15;;;;;;;;;;;16.50;99.90;;;;;;5013828;28;19924;-74
2023/10/04 04:25:43;;;;;;;;;;;16.50;99.90;;;;;;5009970;28;20774;-74
2023/10/04 04:28:09;;;;;;;;;;;16.40;99.90;;;;;;5013402;28;20379;-74
2023/10/04 04:30:35;;;;;;;;;;;16.40;99.90;;;;;;5009579;28;19913;-74
2023/10/04 04:33:07;;;;;;;;;;;16.40;99.90;;;;;;4996445;28;19917;-74
2023/10/04 04:35:47;;;;;;;;;;;16.30;99.90;;;;;;5010037;28;19917;-74
2023/10/04 04:38:16;;;;;;;;;;;16.30;99.90;;;;;;4995771;28;19917;-65
2023/10/04 04:41:21;;;;;;;;;;;16.20;99.90;;;;;;5010991;28;19918;-72
2023/10/04 04:43:36;;;;;;;;;;;16.20;99.90;;;;;;5004485;28;19921;-71
2023/10/04 04:46:06;;;;;;;;;;;16.20;99.90;;;;;;5013354;28;20490;-72
2023/10/04 04:48:35;;;;;;;;;;;16.20;99.90;;;;;;5008472;28;19935;-72
2023/10/04 04:51:03;;;;;;;;;;;16.20;99.90;;;;;;5011203;28;19913;-73
2023/10/04 04:53:28;;;;;;;;;;;16.20;99.90;;;;;;5013629;28;19919;-73
2023/10/04 04:55:54;;;;;;;;;;;16.10;99.90;;;;;;5010376;28;19910;-73
2023/10/04 04:58:21;;;;;;;;;;;16.00;99.90;;;;;;5012173;28;19917;-73
2023/10/04 05:00:56;;;;;;;;;;;15.90;99.90;;;;;;5016850;28;19917;-72
2023/10/04 05:03:24;;;;;;;;;;;15.70;99.90;;;;;;5014969;28;19916;-72
2023/10/04 05:05:49;;;;;;;;;;;15.60;99.90;;;;;;5011944;28;19917;-71
2023/10/04 05:08:16;;;;;;;;;;;15.60;99.90;;;;;;5016668;28;19920;-71
2023/10/04 05:10:44;;;;;;;;;;;15.50;99.90;;;;;;5018804;28;20628;-72
2023/10/04 05:13:13;;;;;;;;;;;15.50;99.90;;;;;;5008525;28;19913;-73
2023/10/04 05:15:42;;;;;;;;;;;15.50;99.90;;;;;;5018235;28;19909;-73
2023/10/04 05:18:15;;;;;;;;;;;15.50;99.90;;;;;;5009956;28;19923;-73
2023/10/04 05:20:41;;;;;;;;;;;15.50;99.90;;;;;;5016318;28;19917;-74
2023/10/04 05:23:09;;;;;;;;;;;15.40;99.90;;;;;;5014350;28;19960;-73
2023/10/04 05:25:34;;;;;;;;;;;15.50;99.90;;;;;;5004910;28;19913;-67
2023/10/04 05:28:03;;;;;;;;;;;15.50;99.90;;;;;;5015704;28;19924;-67
2023/10/04 05:30:29;;;;;;;;;;;15.60;99.90;;;;;;5013812;28;19972;-67
2023/10/04 05:32:55;;;;;;;;;;;15.60;99.90;;;;;;5017061;28;20407;-66
2023/10/04 05:35:21;;;;;;;;;;;15.70;99.90;;;;;;5015560;28;19936;-66
2023/10/04 05:37:47;;;;;;;;;;;15.70;99.90;;;;;;5009854;28;20292;-67
2023/10/04 05:40:25;;;;;;;;;;;15.70;99.90;;;;;;5015177;28;19909;-67
2023/10/04 05:42:54;;;;;;;;;;;16.20;99.90;;;;;;5015047;28;19943;-67
2023/10/04 05:45:23;;;;;;;;;;;17.30;99.90;;;;;;5016149;28;20000;-68
2023/10/04 05:47:50;;;;;;;;;;;18.20;99.90;;;;;;5015560;28;20521;-66
2023/10/04 05:50:21;;;;;;;;;;;18.60;99.90;;;;;;5016219;28;19917;-68
2023/10/04 05:52:58;;;;;;;;;;;19.00;99.90;;;;;;5009921;28;20502;-69
2023/10/04 05:55:24;;;;;;;;;;;20.10;99.70;;;;;;5015190;28;20124;-71
2023/10/04 05:57:50;;;;;;;;;;;20.50;97.80;;;;;;5015122;28;20616;-72
2023/10/04 06:00:33;;;;;;;;;;;20.80;96.80;;;;;;5014892;28;20372;-72
2023/10/04 06:03:07;;;;;;;;;;;21.20;97.20;;;;;;5014927;28;19913;-69
2023/10/04 06:05:35;;;;;;;;;;;21.60;96.60;;;;;;5012630;28;20277;-72
2023/10/04 06:08:05;;;;;;;;;;;22.50;94.40;;;;;;5013106;28;20327;-72
2023/10/04 06:10:31;;;;;;;;;;;23.50;93.50;;;;;;5013382;28;19988;-72
2023/10/04 06:12:57;;;;;;;;;;;23.50;92.60;;;;;;5014774;28;20052;-72
2023/10/04 06:15:24;;;;;;;;;;;23.60;91.20;;;;;;5009171;28;20612;-74
2023/10/04 06:17:51;;;;;;;;;;;24.10;91.00;;;;;;5016522;28;20012;-66
2023/10/04 06:20:33;;;;;;;;;;;24.70;89.00;;;;;;4993549;28;20389;-65
2023/10/04 06:23:00;;;;;;;;;;;24.00;90.30;;;;;;5012918;28;20380;-65
2023/10/04 06:25:26;;;;;;;;;;;23.70;91.00;;;;;;4994192;28;19943;-65
2023/10/04 06:27:53;;;;;;;;;;;24.40;90.50;;;;;;5014983;28;19966;-66
2023/10/04 06:30:23;;;;;;;;;;;24.80;87.20;;;;;;5003743;28;19920;-66
2023/10/04 06:32:55;;;;;;;;;;;25.10;87.40;;;;;;4994850;28;19924;-65
2023/10/04 06:35:24;;;;;;;;;;;25.00;87.90;;;;;;5009300;28;20475;-66
2023/10/04 06:37:52;;;;;;;;;;;25.60;85.60;;;;;;5013801;28;19921;-66
2023/10/04 06:40:22;;;;;;;;;;;26.90;82.80;;;;;;5009802;28;20511;-72
2023/10/04 06:42:49;;;;;;;;;;;28.00;78.40;;;;;;5014205;28;19913;-73
2023/10/04 06:45:16;;;;;;;;;;;28.40;75.90;;;;;;4997072;28;19917;-72
2023/10/04 06:47:48;;;;;;;;;;;29.20;74.50;;;;;;5012969;28;19971;-73
2023/10/04 06:50:14;;;;;;;;;;;30.10;72.50;;;;;;5012900;28;19923;-72
2023/10/04 06:52:43;;;;;;;;;;;31.00;69.00;;;;;;5015140;28;19967;-72
2023/10/04 06:55:12;;;;;;;;;;;31.50;67.80;;;;;;5000854;28;19909;-74
2023/10/04 06:57:39;;;;;;;;;;;31.10;66.20;;;;;;5017410;28;20281;-72
2023/10/04 07:00:13;;;;;;;;;;;30.80;67.00;;;;;;4999440;28;19916;-72
2023/10/04 07:02:43;;;;;;;;;;;30.60;66.00;;;;;;4998336;28;19924;-72
2023/10/04 07:05:11;;;;;;;;;;;31.80;64.30;;;;;;5012230;28;20599;-72
2023/10/04 07:07:37;;;;;;;;;;;31.90;63.50;;;;;;5013418;28;20354;-72
2023/10/04 07:10:06;;;;;;;;;;;32.80;62.50;;;;;;5013661;28;19916;-73
2023/10/04 07:12:33;;;;;;;;;;;33.40;60.80;;;;;;5004168;28;19917;-73
2023/10/04 07:14:59;;;;;;;;;;;33.70;60.30;;;;;;5012052;28;20358;-73
2023/10/04 07:17:25;;;;;;;;;;;33.20;59.90;;;;;;5017790;28;20016;-73
2023/10/04 07:19:50;;;;;;;;;;;33.10;59.90;;;;;;5009517;28;19913;-73
2023/10/04 07:22:21;;;;;;;;;;;33.30;58.60;;;;;;5016470;28;19909;-73
2023/10/04 07:24:47;;;;;;;;;;;31.50;59.90;;;;;;5013774;28;20029;-73
2023/10/04 07:27:12;;;;;;;;;;;29.80;62.10;;;;;;5015736;28;20346;-73
2023/10/04 07:29:38;;;;;;;;;;;28.90;63.00;;;;;;4999767;28;20296;-72
2023/10/04 07:32:05;;;;;;;;;;;27.40;64.70;;;;;;4996375;28;20075;-72
2023/10/04 07:34:31;;;;;;;;;;;26.40;67.10;;;;;;4998355;28;19917;-73
2023/10/04 07:36:56;;;;;;;;;;;25.70;68.80;;;;;;5014033;28;19909;-73
2023/10/04 07:39:22;;;;;;;;;;;25.30;70.10;;;;;;5014871;28;20031;-72
2023/10/04 07:41:47;;;;;;;;;;;26.30;69.20;;;;;;5015089;28;20658;-73
2023/10/04 07:44:13;;;;;;;;;;;27.70;67.40;;;;;;5016114;28;20027;-72
2023/10/04 07:46:39;;;;;;;;;;;27.30;66.60;;;;;;5011383;28;19909;-72
2023/10/04 07:49:05;;;;;;;;;;;26.50;67.90;;;;;;5017964;28;19917;-72
2023/10/04 07:51:30;;;;;;;;;;;27.70;68.00;;;;;;5013968;28;19958;-73
2023/10/04 07:53:56;;;;;;;;;;;29.80;65.30;;;;;;4997006;28;19913;-73
2023/10/04 07:56:21;;;;;;;;;;;32.10;62.10;;;;;;5015446;28;20811;-73
2023/10/04 07:58:47;;;;;;;;;;;33.40;59.10;;;;;;4997485;28;19913;-73
2023/10/04 08:01:17;;;;;;;;;;;32.50;59.90;;;;;;5010380;28;19917;-73
2023/10/04 08:03:43;;;;;;;;;;;32.90;59.10;;;;;;5013451;28;19913;-72
2023/10/04 08:06:09;;;;;;;;;;;32.30;58.40;;;;;;4996956;28;19914;-72
2023/10/04 08:08:35;;;;;;;;;;;31.60;58.50;;;;;;5014484;28;20007;-72
2023/10/04 08:11:00;;;;;;;;;;;32.10;58.60;;;;;;5016393;28;20008;-73
2023/10/04 08:13:26;;;;;;;;;;;32.60;58.00;;;;;;5019184;28;19905;-73
2023/10/04 08:15:53;;;;;;;;;;;32.10;58.40;;;;;;5014537;28;20955;-72
2023/10/04 08:18:23;;;;;;;;;;;30.60;59.30;;;;;;5011773;28;20039;-72
2023/10/04 08:20:48;;;;;;;;;;;29.40;60.80;;;;;;5015310;28;19909;-72
2023/10/04 08:23:16;;;;;;;;;;;28.60;61.90;;;;;;5014755;28;20446;-72
2023/10/04 08:25:42;;;;;;;;;;;27.90;62.80;;;;;;5009050;28;19999;-72
2023/10/04 08:28:09;;;;;;;;;;;27.10;64.30;;;;;;5012756;28;19913;-72
2023/10/04 08:30:38;;;;;;;;;;;26.20;64.70;;;;;;4993107;28;19920;-71
2023/10/04 08:33:03;;;;;;;;;;;25.30;66.70;;;;;;4995201;28;19913;-71
2023/10/04 08:35:29;;;;;;;;;;;24.50;69.00;;;;;;5005942;28;19928;-72
2023/10/04 08:37:57;;;;;;;;;;;24.00;70.20;;;;;;5013363;28;19978;-71
2023/10/04 08:40:23;;;;;;;;;;;23.60;71.20;;;;;;4991970;28;19913;-72
2023/10/04 08:42:50;;;;;;;;;;;23.20;72.20;;;;;;5013135;28;19913;-72
2023/10/04 08:45:19;;;;;;;;;;;22.60;74.50;;;;;;5012377;28;19917;-72
2023/10/04 08:47:52;;;;;;;;;;;22.50;74.90;;;;;;5013546;28;19909;-72
2023/10/04 08:50:30;;;;;;;;;;;22.60;74.80;;;;;;5013244;28;19924;-72
2023/10/04 08:53:01;;;;;;;;;;;22.40;74.80;;;;;;5008810;28;19913;-72
2023/10/04 08:55:26;;;;;;;;;;;22.30;75.20;;;;;;5012853;28;20023;-72
2023/10/04 08:57:53;;;;;;;;;;;22.10;75.90;;;;;;5012858;28;20065;-72
2023/10/04 09:00:23;;;;;;;;;;;21.90;76.40;;;;;;5009449;28;19917;-72
2023/10/04 09:02:50;;;;;;;;;;;21.90;77.10;;;;;;5013650;28;19924;-72
2023/10/04 09:05:23;;;;;;;;;;;22.00;77.00;;;;;;4994846;28;19948;-72
2023/10/04 09:07:51;;;;;;;;;;;21.90;77.20;;;;;;4995625;28;19975;-72
2023/10/04 09:10:18;;;;;;;;;;;21.60;78.90;;;;;;5013712;28;20376;-72
2023/10/04 09:12:44;;;;;;;;;;;21.70;78.70;;;;;;5008859;28;19913;-73
2023/10/04 09:15:13;;;;;;;;;;;21.70;78.40;;;;;;5012706;28;20052;-72
2023/10/04 09:17:55;;;;;;;;;;;21.70;78.80;;;;;;5013745;28;19958;-72
2023/10/04 09:20:23;;;;;;;;;;;21.50;79.30;;;;;;5017828;28;19913;-72
2023/10/04 09:22:48;;;;;;;;;;;21.50;79.40;;;;;;5006933;28;19936;-73
2023/10/04 09:25:16;;;;;;;;;;;21.50;79.40;;;;;;5013373;28;20331;-73
2023/10/04 09:27:52;;;;;;;;;;;21.80;79.10;;;;;;5009646;28;19921;-73
2023/10/04 09:30:21;;;;;;;;;;;24.70;75.80;;;;;;4997139;28;19917;-73
2023/10/04 09:32:47;;;;;;;;;;;28.30;70.20;;;;;;4989918;28;19924;-74
2023/10/04 09:35:12;;;;;;;;;;;31.40;66.30;;;;;;5013005;28;20304;-74
2023/10/04 09:37:44;;;;;;;;;;;33.70;61.30;;;;;;5012133;28;20519;-74
2023/10/04 09:40:12;;;;;;;;;;;35.00;58.70;;;;;;5013745;28;19924;-69
2023/10/04 09:42:53;;;;;;;;;;;34.90;56.60;;;;;;4991143;28;20431;-69
2023/10/04 09:45:20;;;;;;;;;;;34.00;56.90;;;;;;5016247;28;19925;-70
2023/10/04 09:47:46;;;;;;;;;;;31.40;57.20;;;;;;5015532;28;19909;-70
2023/10/04 09:50:22;;;;;;;;;;;28.50;60.10;;;;;;4998057;28;20300;-69
2023/10/04 09:52:48;;;;;;;;;;;27.50;62.30;;;;;;4997646;28;19917;-71
2023/10/04 09:55:14;;;;;;;;;;;26.60;63.70;;;;;;5012219;28;19925;-68
2023/10/04 09:57:41;;;;;;;;;;;25.70;66.20;;;;;;5014551;28;19917;-68
2023/10/04 10:00:12;;;;;;;;;;;24.80;66.20;;;;;;5015352;28;20010;-68
2023/10/04 10:02:41;;;;;;;;;;;25.10;68.30;;;;;;4995470;28;19913;-68
2023/10/04 10:05:09;;;;;;;;;;;29.00;64.00;;;;;;5015136;28;20496;-69
2023/10/04 10:07:40;;;;;;;;;;;31.60;60.80;;;;;;5016703;28;19913;-70
2023/10/04 10:10:12;;;;;;;;;;;30.40;59.20;;;;;;5017444;28;19908;-70
2023/10/04 10:12:39;;;;;;;;;;;29.00;61.10;;;;;;5012882;28;20352;-69
2023/10/04 10:15:05;;;;;;;;;;;28.00;62.70;;;;;;5006742;28;20665;-70
2023/10/04 10:17:33;;;;;;;;;;;30.10;61.20;;;;;;5015993;28;19996;-69
2023/10/04 10:19:59;;;;;;;;;;;32.00;59.70;;;;;;5017902;28;20284;-69
2023/10/04 10:22:25;;;;;;;;;;;32.70;58.60;;;;;;5001334;28;20676;-69
2023/10/04 10:24:57;;;;;;;;;;;33.80;56.50;;;;;;5013308;28;19992;-69
2023/10/04 10:27:23;;;;;;;;;;;35.40;54.90;;;;;;5011508;28;20482;-68
2023/10/04 10:29:50;;;;;;;;;;;32.20;54.80;;;;;;5018564;28;19913;-68
2023/10/04 10:32:16;;;;;;;;;;;31.20;58.00;;;;;;4992153;28;20008;-68
2023/10/04 10:34:43;;;;;;;;;;;32.30;57.40;;;;;;5017111;28;19918;-68
2023/10/04 10:37:10;;;;;;;;;;;34.10;55.80;;;;;;5014158;28;20301;-70
2023/10/04 10:39:46;;;;;;;;;;;33.20;55.00;;;;;;5007936;28;19914;-69
2023/10/04 10:42:12;;;;;;;;;;;32.50;55.60;;;;;;4992271;28;19913;-69
2023/10/04 10:44:39;;;;;;;;;;;31.80;56.70;;;;;;5014804;28;20288;-68
2023/10/04 10:47:10;;;;;;;;;;;32.10;57.30;;;;;;5015101;28;19913;-69
2023/10/04 10:49:36;;;;;;;;;;;31.00;56.80;;;;;;5017958;28;19920;-69
2023/10/04 10:52:02;;;;;;;;;;;29.70;58.60;;;;;;5015074;28;19913;-67
2023/10/04 10:54:28;;;;;;;;;;;28.30;60.00;;;;;;5016121;28;20330;-69
2023/10/04 10:56:53;;;;;;;;;;;27.50;60.80;;;;;;4991846;28;19975;-69
2023/10/04 10:59:19;;;;;;;;;;;26.80;62.20;;;;;;4998193;28;20007;-68
2023/10/04 11:01:45;;;;;;;;;;;26.80;63.30;;;;;;4996123;28;19952;-69
2023/10/04 11:04:10;;;;;;;;;;;26.80;62.40;;;;;;4996647;28;19924;-68
2023/10/04 11:06:36;;;;;;;;;;;26.80;63.20;;;;;;5003176;28;20210;-69
2023/10/04 11:09:02;;;;;;;;;;;26.60;62.10;;;;;;5000169;28;19922;-68
2023/10/04 11:11:27;;;;;;;;;;;26.40;62.50;;;;;;4995587;28;19991;-69
2023/10/04 11:13:53;;;;;;;;;;;26.20;63.00;;;;;;5015004;28;19918;-69
2023/10/04 11:16:19;;;;;;;;;;;25.80;64.50;;;;;;5012450;28;20014;-69
2023/10/04 11:18:45;;;;;;;;;;;26.00;64.20;;;;;;5011822;28;20384;-69
2023/10/04 11:21:11;;;;;;;;;;;26.00;62.70;;;;;;4996571;28;19913;-68
2023/10/04 11:23:39;;;;;;;;;;;25.60;64.20;;;;;;5000383;28;20412;-69
2023/10/04 11:26:07;;;;;;;;;;;25.50;64.70;;;;;;5014161;28;20398;-69
2023/10/04 11:28:32;;;;;;;;;;;25.90;64.50;;;;;;5012598;28;20357;-69
2023/10/04 11:30:58;;;;;;;;;;;26.00;63.70;;;;;;5009310;28;19920;-69
2023/10/04 11:33:24;;;;;;;;;;;26.00;63.50;;;;;;4997388;28;19920;-68
2023/10/04 11:35:49;;;;;;;;;;;25.40;63.60;;;;;;5009208;28;20044;-67
2023/10/04 11:38:16;;;;;;;;;;;25.20;64.70;;;;;;5013028;28;20283;-68
2023/10/04 11:40:48;;;;;;;;;;;25.20;64.70;;;;;;5015593;28;19963;-68
2023/10/04 11:43:14;;;;;;;;;;;25.00;63.90;;;;;;4995538;28;20505;-67
2023/10/04 11:45:40;;;;;;;;;;;24.90;65.20;;;;;;5013143;28;19956;-69
2023/10/04 11:48:08;;;;;;;;;;;24.90;64.60;;;;;;5014873;28;19913;-69
2023/10/04 11:50:47;;;;;;;;;;;25.20;65.60;;;;;;5011773;28;20399;-68
2023/10/04 11:53:13;;;;;;;;;;;25.60;65.70;;;;;;5012279;28;19920;-68
2023/10/04 11:55:39;;;;;;;;;;;25.60;65.30;;;;;;4995914;28;20427;-69
2023/10/04 11:58:05;;;;;;;;;;;25.30;61.50;;;;;;5013406;28;19917;-68
2023/10/04 12:00:30;;;;;;;;;;;25.00;62.20;;;;;;5015326;28;19913;-68
2023/10/04 12:02:56;;;;;;;;;;;25.00;63.20;;;;;;5013946;28;19909;-68
2023/10/04 12:05:21;;;;;;;;;;;25.10;63.90;;;;;;5009377;28;20382;-68
2023/10/04 12:07:47;;;;;;;;;;;25.30;64.30;;;;;;5001151;28;20002;-68
2023/10/04 12:10:13;;;;;;;;;;;25.60;63.90;;;;;;5014895;28;20368;-69
2023/10/04 12:12:40;;;;;;;;;;;25.60;62.70;;;;;;5009025;28;19962;-69
2023/10/04 12:15:07;;;;;;;;;;;25.00;63.30;;;;;;5012796;28;19917;-68
2023/10/04 12:17:34;;;;;;;;;;;24.50;63.70;;;;;;5013327;28;19952;-69
2023/10/04 12:20:04;;;;;;;;;;;23.70;62.90;;;;;;5001908;28;19910;-69
2023/10/04 12:22:30;;;;;;;;;;;23.40;63.50;;;;;;5009447;28;19913;-67
2023/10/04 12:24:55;;;;;;;;;;;23.30;62.60;;;;;;5012542;28;19920;-68
2023/10/04 12:27:22;;;;;;;;;;;23.50;62.80;;;;;;4997920;28;20301;-68
2023/10/04 12:29:47;;;;;;;;;;;23.70;63.70;;;;;;5002901;28;19917;-67
2023/10/04 12:32:14;;;;;;;;;;;24.00;63.10;;;;;;4993805;28;19914;-68
2023/10/04 12:34:40;;;;;;;;;;;24.00;61.00;;;;;;5012121;28;19955;-67
2023/10/04 12:37:06;;;;;;;;;;;23.80;62.60;;;;;;5012479;28;19952;-68
2023/10/04 12:39:32;;;;;;;;;;;23.90;65.40;;;;;;4993457;28;19918;-67
2023/10/04 12:42:00;;;;;;;;;;;23.90;66.20;;;;;;5014846;28;19917;-69
2023/10/04 12:44:26;;;;;;;;;;;23.80;65.40;;;;;;5007957;28;20416;-71
2023/10/04 12:46:53;;;;;;;;;;;23.80;65.40;;;;;;5012930;28;19913;-71
2023/10/04 12:49:18;;;;;;;;;;;23.80;64.80;;;;;;5011386;28;20333;-72
2023/10/04 12:51:46;;;;;;;;;;;23.80;65.60;;;;;;5013237;28;20037;-71
2023/10/04 12:54:11;;;;;;;;;;;24.00;64.40;;;;;;5010046;28;19933;-71
2023/10/04 12:56:37;;;;;;;;;;;24.00;63.20;;;;;;4994871;28;20380;-71
2023/10/04 12:59:04;;;;;;;;;;;23.90;62.10;;;;;;5018872;28;19948;-71
2023/10/04 13:01:30;;;;;;;;;;;23.70;62.00;;;;;;5007999;28;20361;-71
2023/10/04 13:03:57;;;;;;;;;;;23.50;62.50;;;;;;5012286;28;20024;-71
2023/10/04 13:06:23;;;;;;;;;;;23.10;64.10;;;;;;5008441;28;20816;-71
2023/10/04 13:08:49;;;;;;;;;;;22.80;64.80;;;;;;4997667;28;19917;-71
2023/10/04 13:11:14;;;;;;;;;;;22.60;63.90;;;;;;5014183;28;20507;-71
2023/10/04 13:13:40;;;;;;;;;;;22.60;64.40;;;;;;5012952;28;19955;-71
2023/10/04 13:16:07;;;;;;;;;;;22.60;64.60;;;;;;5013400;28;20244;-71
2023/10/04 13:18:33;;;;;;;;;;;22.60;65.50;;;;;;4997572;28;19920;-71
2023/10/04 13:20:59;;;;;;;;;;;22.60;65.80;;;;;;5017486;28;19910;-71
2023/10/04 13:23:26;;;;;;;;;;;22.60;65.30;;;;;;5011101;28;19926;-71
2023/10/04 13:25:52;;;;;;;;;;;22.80;65.50;;;;;;5014402;28;19909;-71
2023/10/04 13:28:18;;;;;;;;;;;23.00;63.90;;;;;;5012632;28;20235;-71
2023/10/04 13:30:45;;;;;;;;;;;23.10;63.40;;;;;;5017101;28;19913;-72
2023/10/04 13:33:15;;;;;;;;;;;23.00;64.20;;;;;;4994871;28;20120;-71
2023/10/04 13:35:40;;;;;;;;;;;22.90;65.80;;;;;;5016774;28;20369;-72
2023/10/04 13:38:06;;;;;;;;;;;23.10;64.80;;;;;;4996775;28;19925;-72
2023/10/04 13:40:33;;;;;;;;;;;23.30;65.60;;;;;;5017803;28;19940;-71
2023/10/04 13:42:59;;;;;;;;;;;23.40;65.80;;;;;;4994132;28;19920;-73
2023/10/04 13:45:25;;;;;;;;;;;23.40;66.00;;;;;;5017887;28;19921;-73
2023/10/04 13:47:50;;;;;;;;;;;23.20;66.60;;;;;;5017155;28;19952;-73
2023/10/04 13:50:22;;;;;;;;;;;23.00;66.20;;;;;;5019233;28;20046;-72
2023/10/04 13:52:47;;;;;;;;;;;22.90;66.70;;;;;;5003846;28;20533;-73
2023/10/04 13:55:13;;;;;;;;;;;22.60;67.30;;;;;;5015669;28;19917;-73
2023/10/04 13:57:39;;;;;;;;;;;22.50;67.90;;;;;;5011889;28;19921;-73
2023/10/04 14:00:15;;;;;;;;;;;22.30;68.10;;;;;;5016140;28;19913;-73
2023/10/04 14:02:40;;;;;;;;;;;22.10;68.30;;;;;;4997678;28;20578;-71
2023/10/04 14:05:08;;;;;;;;;;;21.90;69.70;;;;;;5015421;28;19967;-71
2023/10/04 14:07:33;;;;;;;;;;;21.80;67.70;;;;;;5015514;28;19909;-72
2023/10/04 14:09:59;;;;;;;;;;;21.70;68.00;;;;;;5018283;28;19919;-71
2023/10/04 14:12:25;;;;;;;;;;;21.80;67.90;;;;;;4999709;28;20111;-72
2023/10/04 14:14:51;;;;;;;;;;;21.80;68.10;;;;;;5016644;28;19913;-72
2023/10/04 14:17:19;;;;;;;;;;;21.90;68.00;;;;;;4994387;28;19921;-70